sensor_id;sensor_type;location;lat;lon;timestamp;P1;durP1;ratioP1;P2;durP2;ratioP2
24143;SDS011;12307;50.828;6.080;2023-04-24T00:00:45;0.30;;;0.30;;
24143;SDS011;12307;50.828;6.080;2023-04-24T00:03:13;0.35;;;0.35;;
24143;SDS011;12307;50.828;6.080;2023-04-24T00:05:39;0.20;;;0.20;;
24143;SDS011;12307;50.828;6.080;2023-04-24T00:08:05;0.40;;;0.40;;
24143;SDS011;12307;50.828;6.080;2023-04-24T00:10:31;0.30;;;0.30;;
24143;SDS011;12307;50.828;6.080;2023-04-24T00:12:57;0.40;;;0.40;;
24143;SDS011;12307;50.828;6.080;2023-04-24T00:15:22;0.32;;;0.32;;
24143;SDS011;12307;50.828;6.080;2023-04-24T00:17:48;0.30;;;0.30;;
24143;SDS011;12307;50.828;6.080;2023-04-24T00:20:15;0.40;;;0.40;;
24143;SDS011;12307;50.828;6.080;2023-04-24T00:22:41;0.40;;;0.40;;
24143;SDS011;12307;50.828;6.080;2023-04-24T00:25:07;0.38;;;0.38;;
24143;SDS011;12307;50.828;6.080;2023-04-24T00:27:33;0.30;;;0.30;;
24143;SDS011;12307;50.828;6.080;2023-04-24T00:30:01;0.50;;;0.50;;
24143;SDS011;12307;50.828;6.080;2023-04-24T00:32:28;0.40;;;0.40;;
24143;SDS011;12307;50.828;6.080;2023-04-24T00:34:53;0.50;;;0.40;;
24143;SDS011;12307;50.828;6.080;2023-04-24T00:37:23;0.38;;;0.38;;
24143;SDS011;12307;50.828;6.080;2023-04-24T00:39:49;0.30;;;0.30;;
24143;SDS011;12307;50.828;6.080;2023-04-24T00:42:15;0.40;;;0.40;;
24143;SDS011;12307;50.828;6.080;2023-04-24T00:44:40;0.30;;;0.30;;
24143;SDS011;12307;50.828;6.080;2023-04-24T00:47:06;0.50;;;0.50;;
24143;SDS011;12307;50.828;6.080;2023-04-24T00:49:32;0.40;;;0.40;;
24143;SDS011;12307;50.828;6.080;2023-04-24T00:51:58;0.40;;;0.40;;
24143;SDS011;12307;50.828;6.080;2023-04-24T00:54:25;0.35;;;0.35;;
24143;SDS011;12307;50.828;6.080;2023-04-24T00:56:51;0.30;;;0.30;;
24143;SDS011;12307;50.828;6.080;2023-04-24T00:59:17;0.38;;;0.38;;
24143;SDS011;12307;50.828;6.080;2023-04-24T01:01:43;0.47;;;0.47;;
24143;SDS011;12307;50.828;6.080;2023-04-24T01:04:10;0.30;;;0.30;;
24143;SDS011;12307;50.828;6.080;2023-04-24T01:06:37;0.30;;;0.30;;
24143;SDS011;12307;50.828;6.080;2023-04-24T01:09:04;0.30;;;0.30;;
24143;SDS011;12307;50.828;6.080;2023-04-24T01:11:34;0.40;;;0.40;;
24143;SDS011;12307;50.828;6.080;2023-04-24T01:14:00;0.40;;;0.40;;
24143;SDS011;12307;50.828;6.080;2023-04-24T01:16:26;0.35;;;0.35;;
24143;SDS011;12307;50.828;6.080;2023-04-24T01:18:52;0.43;;;0.43;;
24143;SDS011;12307;50.828;6.080;2023-04-24T01:21:18;0.40;;;0.40;;
24143;SDS011;12307;50.828;6.080;2023-04-24T01:23:47;0.38;;;0.38;;
24143;SDS011;12307;50.828;6.080;2023-04-24T01:26:15;0.45;;;0.40;;
24143;SDS011;12307;50.828;6.080;2023-04-24T01:28:42;0.50;;;0.50;;
24143;SDS011;12307;50.828;6.080;2023-04-24T01:31:08;0.43;;;0.40;;
24143;SDS011;12307;50.828;6.080;2023-04-24T01:33:34;0.30;;;0.30;;
24143;SDS011;12307;50.828;6.080;2023-04-24T01:36:00;0.40;;;0.40;;
24143;SDS011;12307;50.828;6.080;2023-04-24T01:38:26;0.40;;;0.40;;
24143;SDS011;12307;50.828;6.080;2023-04-24T01:40:53;0.40;;;0.40;;
24143;SDS011;12307;50.828;6.080;2023-04-24T01:43:19;0.45;;;0.45;;
24143;SDS011;12307;50.828;6.080;2023-04-24T01:45:45;0.30;;;0.30;;
24143;SDS011;12307;50.828;6.080;2023-04-24T01:48:11;0.50;;;0.50;;
24143;SDS011;12307;50.828;6.080;2023-04-24T01:50:37;0.47;;;0.47;;
24143;SDS011;12307;50.828;6.080;2023-04-24T01:53:03;0.50;;;0.50;;
24143;SDS011;12307;50.828;6.080;2023-04-24T01:55:29;0.50;;;0.50;;
24143;SDS011;12307;50.828;6.080;2023-04-24T01:57:56;0.38;;;0.38;;
24143;SDS011;12307;50.828;6.080;2023-04-24T02:00:23;0.38;;;0.38;;
24143;SDS011;12307;50.828;6.080;2023-04-24T02:02:49;0.40;;;0.40;;
24143;SDS011;12307;50.828;6.080;2023-04-24T02:05:15;0.30;;;0.30;;
24143;SDS011;12307;50.828;6.080;2023-04-24T02:07:41;0.40;;;0.40;;
24143;SDS011;12307;50.828;6.080;2023-04-24T02:10:07;0.35;;;0.35;;
24143;SDS011;12307;50.828;6.080;2023-04-24T02:12:33;0.40;;;0.40;;
24143;SDS011;12307;50.828;6.080;2023-04-24T02:15:00;0.38;;;0.38;;
24143;SDS011;12307;50.828;6.080;2023-04-24T02:17:26;0.40;;;0.40;;
24143;SDS011;12307;50.828;6.080;2023-04-24T02:19:52;0.40;;;0.40;;
24143;SDS011;12307;50.828;6.080;2023-04-24T02:22:18;0.65;;;0.45;;
24143;SDS011;12307;50.828;6.080;2023-04-24T02:24:43;0.35;;;0.32;;
24143;SDS011;12307;50.828;6.080;2023-04-24T02:27:09;0.43;;;0.43;;
24143;SDS011;12307;50.828;6.080;2023-04-24T02:29:36;0.38;;;0.38;;
24143;SDS011;12307;50.828;6.080;2023-04-24T02:32:03;0.40;;;0.40;;
24143;SDS011;12307;50.828;6.080;2023-04-24T02:34:29;0.43;;;0.43;;
24143;SDS011;12307;50.828;6.080;2023-04-24T02:36:55;0.50;;;0.50;;
24143;SDS011;12307;50.828;6.080;2023-04-24T02:39:20;0.40;;;0.40;;
24143;SDS011;12307;50.828;6.080;2023-04-24T02:41:46;0.30;;;0.30;;
24143;SDS011;12307;50.828;6.080;2023-04-24T02:44:12;0.40;;;0.40;;
24143;SDS011;12307;50.828;6.080;2023-04-24T02:46:38;0.40;;;0.40;;
24143;SDS011;12307;50.828;6.080;2023-04-24T02:49:05;0.35;;;0.35;;
24143;SDS011;12307;50.828;6.080;2023-04-24T02:51:30;0.40;;;0.40;;
24143;SDS011;12307;50.828;6.080;2023-04-24T02:53:56;0.47;;;0.47;;
24143;SDS011;12307;50.828;6.080;2023-04-24T02:56:22;0.45;;;0.45;;
24143;SDS011;12307;50.828;6.080;2023-04-24T02:58:47;0.40;;;0.40;;
24143;SDS011;12307;50.828;6.080;2023-04-24T03:01:13;0.55;;;0.50;;
24143;SDS011;12307;50.828;6.080;2023-04-24T03:03:39;0.52;;;0.52;;
24143;SDS011;12307;50.828;6.080;2023-04-24T03:06:06;0.45;;;0.45;;
24143;SDS011;12307;50.828;6.080;2023-04-24T03:08:33;0.40;;;0.40;;
24143;SDS011;12307;50.828;6.080;2023-04-24T03:10:59;0.43;;;0.43;;
24143;SDS011;12307;50.828;6.080;2023-04-24T03:13:24;0.50;;;0.40;;
24143;SDS011;12307;50.828;6.080;2023-04-24T03:15:50;0.40;;;0.40;;
24143;SDS011;12307;50.828;6.080;2023-04-24T03:18:16;0.57;;;0.57;;
24143;SDS011;12307;50.828;6.080;2023-04-24T03:20:41;0.50;;;0.50;;
24143;SDS011;12307;50.828;6.080;2023-04-24T03:23:09;0.60;;;0.60;;
24143;SDS011;12307;50.828;6.080;2023-04-24T03:25:34;0.40;;;0.40;;
24143;SDS011;12307;50.828;6.080;2023-04-24T03:28:00;0.43;;;0.40;;
24143;SDS011;12307;50.828;6.080;2023-04-24T03:30:26;0.50;;;0.50;;
24143;SDS011;12307;50.828;6.080;2023-04-24T03:32:51;0.50;;;0.50;;
24143;SDS011;12307;50.828;6.080;2023-04-24T03:35:17;0.57;;;0.57;;
24143;SDS011;12307;50.828;6.080;2023-04-24T03:37:43;0.40;;;0.40;;
24143;SDS011;12307;50.828;6.080;2023-04-24T03:40:10;0.40;;;0.40;;
24143;SDS011;12307;50.828;6.080;2023-04-24T03:42:36;0.47;;;0.47;;
24143;SDS011;12307;50.828;6.080;2023-04-24T03:45:02;0.40;;;0.40;;
24143;SDS011;12307;50.828;6.080;2023-04-24T03:47:28;0.52;;;0.52;;
24143;SDS011;12307;50.828;6.080;2023-04-24T03:49:57;0.55;;;0.55;;
24143;SDS011;12307;50.828;6.080;2023-04-24T03:52:22;0.40;;;0.40;;
24143;SDS011;12307;50.828;6.080;2023-04-24T03:54:48;0.50;;;0.50;;
24143;SDS011;12307;50.828;6.080;2023-04-24T03:57:15;0.40;;;0.40;;
24143;SDS011;12307;50.828;6.080;2023-04-24T03:59:41;0.50;;;0.50;;
24143;SDS011;12307;50.828;6.080;2023-04-24T04:02:06;0.40;;;0.40;;
24143;SDS011;12307;50.828;6.080;2023-04-24T04:04:32;0.52;;;0.50;;
24143;SDS011;12307;50.828;6.080;2023-04-24T04:06:58;0.50;;;0.50;;
24143;SDS011;12307;50.828;6.080;2023-04-24T04:09:26;0.50;;;0.50;;
24143;SDS011;12307;50.828;6.080;2023-04-24T04:11:52;0.50;;;0.50;;
24143;SDS011;12307;50.828;6.080;2023-04-24T04:14:19;0.50;;;0.50;;
24143;SDS011;12307;50.828;6.080;2023-04-24T04:16:44;0.50;;;0.50;;
24143;SDS011;12307;50.828;6.080;2023-04-24T04:19:10;0.43;;;0.43;;
24143;SDS011;12307;50.828;6.080;2023-04-24T04:21:36;0.40;;;0.40;;
24143;SDS011;12307;50.828;6.080;2023-04-24T04:24:01;0.50;;;0.50;;
24143;SDS011;12307;50.828;6.080;2023-04-24T04:26:27;0.60;;;0.52;;
24143;SDS011;12307;50.828;6.080;2023-04-24T04:28:53;0.43;;;0.43;;
24143;SDS011;12307;50.828;6.080;2023-04-24T04:31:20;0.43;;;0.43;;
24143;SDS011;12307;50.828;6.080;2023-04-24T04:33:46;0.52;;;0.52;;
24143;SDS011;12307;50.828;6.080;2023-04-24T04:36:12;0.45;;;0.45;;
24143;SDS011;12307;50.828;6.080;2023-04-24T04:38:37;0.38;;;0.38;;
24143;SDS011;12307;50.828;6.080;2023-04-24T04:41:03;0.50;;;0.50;;
24143;SDS011;12307;50.828;6.080;2023-04-24T04:43:29;0.57;;;0.57;;
24143;SDS011;12307;50.828;6.080;2023-04-24T04:45:56;0.30;;;0.30;;
24143;SDS011;12307;50.828;6.080;2023-04-24T04:48:24;0.47;;;0.47;;
24143;SDS011;12307;50.828;6.080;2023-04-24T04:50:50;0.40;;;0.40;;
24143;SDS011;12307;50.828;6.080;2023-04-24T04:53:15;0.40;;;0.40;;
24143;SDS011;12307;50.828;6.080;2023-04-24T04:55:41;0.30;;;0.30;;
24143;SDS011;12307;50.828;6.080;2023-04-24T04:58:07;0.57;;;0.57;;
24143;SDS011;12307;50.828;6.080;2023-04-24T05:00:33;0.40;;;0.40;;
24143;SDS011;12307;50.828;6.080;2023-04-24T05:03:00;0.50;;;0.50;;
24143;SDS011;12307;50.828;6.080;2023-04-24T05:05:27;0.50;;;0.50;;
24143;SDS011;12307;50.828;6.080;2023-04-24T05:07:53;0.50;;;0.50;;
24143;SDS011;12307;50.828;6.080;2023-04-24T05:10:19;0.50;;;0.50;;
24143;SDS011;12307;50.828;6.080;2023-04-24T05:12:45;0.65;;;0.65;;
24143;SDS011;12307;50.828;6.080;2023-04-24T05:15:10;0.40;;;0.40;;
24143;SDS011;12307;50.828;6.080;2023-04-24T05:17:36;0.60;;;0.60;;
24143;SDS011;12307;50.828;6.080;2023-04-24T05:20:02;0.68;;;0.68;;
24143;SDS011;12307;50.828;6.080;2023-04-24T05:22:31;0.50;;;0.40;;
24143;SDS011;12307;50.828;6.080;2023-04-24T05:24:57;0.50;;;0.50;;
24143;SDS011;12307;50.828;6.080;2023-04-24T05:27:23;0.50;;;0.50;;
24143;SDS011;12307;50.828;6.080;2023-04-24T05:29:49;0.40;;;0.40;;
24143;SDS011;12307;50.828;6.080;2023-04-24T05:32:14;0.50;;;0.50;;
24143;SDS011;12307;50.828;6.080;2023-04-24T05:34:40;0.57;;;0.55;;
24143;SDS011;12307;50.828;6.080;2023-04-24T05:37:06;0.50;;;0.50;;
24143;SDS011;12307;50.828;6.080;2023-04-24T05:39:36;0.50;;;0.50;;
24143;SDS011;12307;50.828;6.080;2023-04-24T05:42:02;0.50;;;0.50;;
24143;SDS011;12307;50.828;6.080;2023-04-24T05:44:29;0.60;;;0.60;;
24143;SDS011;12307;50.828;6.080;2023-04-24T05:46:55;0.60;;;0.60;;
24143;SDS011;12307;50.828;6.080;2023-04-24T05:49:21;0.55;;;0.55;;
24143;SDS011;12307;50.828;6.080;2023-04-24T05:51:47;0.50;;;0.50;;
24143;SDS011;12307;50.828;6.080;2023-04-24T05:54:13;0.50;;;0.50;;
24143;SDS011;12307;50.828;6.080;2023-04-24T05:56:40;0.40;;;0.40;;
24143;SDS011;12307;50.828;6.080;2023-04-24T05:59:06;0.60;;;0.60;;
24143;SDS011;12307;50.828;6.080;2023-04-24T06:01:33;0.60;;;0.60;;
24143;SDS011;12307;50.828;6.080;2023-04-24T06:03:59;0.47;;;0.47;;
24143;SDS011;12307;50.828;6.080;2023-04-24T06:06:25;0.43;;;0.43;;
24143;SDS011;12307;50.828;6.080;2023-04-24T06:08:52;0.63;;;0.52;;
24143;SDS011;12307;50.828;6.080;2023-04-24T06:11:18;0.60;;;0.60;;
24143;SDS011;12307;50.828;6.080;2023-04-24T06:13:45;0.50;;;0.50;;
24143;SDS011;12307;50.828;6.080;2023-04-24T06:16:11;0.50;;;0.50;;
24143;SDS011;12307;50.828;6.080;2023-04-24T06:18:36;0.40;;;0.40;;
24143;SDS011;12307;50.828;6.080;2023-04-24T06:21:02;0.50;;;0.50;;
24143;SDS011;12307;50.828;6.080;2023-04-24T06:23:28;0.50;;;0.50;;
24143;SDS011;12307;50.828;6.080;2023-04-24T06:25:57;0.40;;;0.40;;
24143;SDS011;12307;50.828;6.080;2023-04-24T06:28:23;0.50;;;0.50;;
24143;SDS011;12307;50.828;6.080;2023-04-24T06:30:50;0.60;;;0.60;;
24143;SDS011;12307;50.828;6.080;2023-04-24T06:33:15;0.40;;;0.40;;
24143;SDS011;12307;50.828;6.080;2023-04-24T06:35:41;0.50;;;0.50;;
24143;SDS011;12307;50.828;6.080;2023-04-24T06:38:07;0.40;;;0.40;;
24143;SDS011;12307;50.828;6.080;2023-04-24T06:40:33;0.50;;;0.50;;
24143;SDS011;12307;50.828;6.080;2023-04-24T06:42:58;0.45;;;0.45;;
24143;SDS011;12307;50.828;6.080;2023-04-24T06:45:25;0.50;;;0.50;;
24143;SDS011;12307;50.828;6.080;2023-04-24T06:47:52;0.50;;;0.47;;
24143;SDS011;12307;50.828;6.080;2023-04-24T06:50:18;0.40;;;0.40;;
24143;SDS011;12307;50.828;6.080;2023-04-24T06:52:43;0.50;;;0.50;;
24143;SDS011;12307;50.828;6.080;2023-04-24T06:55:09;0.50;;;0.50;;
24143;SDS011;12307;50.828;6.080;2023-04-24T06:57:36;0.50;;;0.50;;
24143;SDS011;12307;50.828;6.080;2023-04-24T07:00:02;0.50;;;0.50;;
24143;SDS011;12307;50.828;6.080;2023-04-24T07:02:30;0.50;;;0.50;;
24143;SDS011;12307;50.828;6.080;2023-04-24T07:04:57;0.50;;;0.50;;
24143;SDS011;12307;50.828;6.080;2023-04-24T07:07:22;0.40;;;0.40;;
24143;SDS011;12307;50.828;6.080;2023-04-24T07:09:48;0.40;;;0.40;;
24143;SDS011;12307;50.828;6.080;2023-04-24T07:12:15;0.50;;;0.50;;
24143;SDS011;12307;50.828;6.080;2023-04-24T07:14:42;0.40;;;0.40;;
24143;SDS011;12307;50.828;6.080;2023-04-24T07:17:07;0.40;;;0.40;;
24143;SDS011;12307;50.828;6.080;2023-04-24T07:19:33;0.35;;;0.35;;
24143;SDS011;12307;50.828;6.080;2023-04-24T07:22:02;0.40;;;0.40;;
24143;SDS011;12307;50.828;6.080;2023-04-24T07:24:28;0.50;;;0.50;;
24143;SDS011;12307;50.828;6.080;2023-04-24T07:26:54;0.30;;;0.30;;
24143;SDS011;12307;50.828;6.080;2023-04-24T07:29:20;0.50;;;0.50;;
24143;SDS011;12307;50.828;6.080;2023-04-24T07:31:46;0.40;;;0.40;;
24143;SDS011;12307;50.828;6.080;2023-04-24T07:34:12;0.40;;;0.40;;
24143;SDS011;12307;50.828;6.080;2023-04-24T07:36:37;0.40;;;0.40;;
24143;SDS011;12307;50.828;6.080;2023-04-24T07:39:04;0.50;;;0.50;;
24143;SDS011;12307;50.828;6.080;2023-04-24T07:41:30;0.50;;;0.50;;
24143;SDS011;12307;50.828;6.080;2023-04-24T07:43:56;0.52;;;0.50;;
24143;SDS011;12307;50.828;6.080;2023-04-24T07:46:23;0.47;;;0.47;;
24143;SDS011;12307;50.828;6.080;2023-04-24T07:48:49;0.43;;;0.43;;
24143;SDS011;12307;50.828;6.080;2023-04-24T07:51:16;0.43;;;0.43;;
24143;SDS011;12307;50.828;6.080;2023-04-24T07:53:42;0.40;;;0.40;;
24143;SDS011;12307;50.828;6.080;2023-04-24T07:56:10;0.45;;;0.45;;
24143;SDS011;12307;50.828;6.080;2023-04-24T07:58:35;0.43;;;0.43;;
24143;SDS011;12307;50.828;6.080;2023-04-24T08:01:01;0.50;;;0.50;;
24143;SDS011;12307;50.828;6.080;2023-04-24T08:03:27;0.55;;;0.55;;
24143;SDS011;12307;50.828;6.080;2023-04-24T08:05:53;0.47;;;0.47;;
24143;SDS011;12307;50.828;6.080;2023-04-24T08:08:20;0.50;;;0.47;;
24143;SDS011;12307;50.828;6.080;2023-04-24T08:10:47;0.40;;;0.40;;
24143;SDS011;12307;50.828;6.080;2023-04-24T08:13:14;0.50;;;0.50;;
24143;SDS011;12307;50.828;6.080;2023-04-24T08:15:40;0.40;;;0.40;;
24143;SDS011;12307;50.828;6.080;2023-04-24T08:18:06;0.50;;;0.50;;
24143;SDS011;12307;50.828;6.080;2023-04-24T08:20:32;0.45;;;0.43;;
24143;SDS011;12307;50.828;6.080;2023-04-24T08:22:57;0.47;;;0.47;;
24143;SDS011;12307;50.828;6.080;2023-04-24T08:25:23;0.50;;;0.50;;
24143;SDS011;12307;50.828;6.080;2023-04-24T08:27:49;0.40;;;0.40;;
24143;SDS011;12307;50.828;6.080;2023-04-24T08:30:17;0.40;;;0.40;;
24143;SDS011;12307;50.828;6.080;2023-04-24T08:32:43;0.60;;;0.57;;
24143;SDS011;12307;50.828;6.080;2023-04-24T08:35:08;0.40;;;0.40;;
24143;SDS011;12307;50.828;6.080;2023-04-24T08:37:35;0.50;;;0.50;;
24143;SDS011;12307;50.828;6.080;2023-04-24T08:40:02;0.50;;;0.50;;
24143;SDS011;12307;50.828;6.080;2023-04-24T08:42:35;0.40;;;0.40;;
24143;SDS011;12307;50.828;6.080;2023-04-24T08:45:02;0.60;;;0.60;;
24143;SDS011;12307;50.828;6.080;2023-04-24T08:47:29;0.50;;;0.50;;
24143;SDS011;12307;50.828;6.080;2023-04-24T08:49:56;0.50;;;0.50;;
24143;SDS011;12307;50.828;6.080;2023-04-24T08:52:22;0.50;;;0.50;;
24143;SDS011;12307;50.828;6.080;2023-04-24T08:54:48;0.60;;;0.60;;
24143;SDS011;12307;50.828;6.080;2023-04-24T08:57:14;0.47;;;0.47;;
24143;SDS011;12307;50.828;6.080;2023-04-24T08:59:41;0.45;;;0.45;;
24143;SDS011;12307;50.828;6.080;2023-04-24T09:02:09;0.50;;;0.50;;
24143;SDS011;12307;50.828;6.080;2023-04-24T09:04:37;0.50;;;0.50;;
24143;SDS011;12307;50.828;6.080;2023-04-24T09:07:04;0.90;;;0.60;;
24143;SDS011;12307;50.828;6.080;2023-04-24T09:09:31;0.50;;;0.50;;
24143;SDS011;12307;50.828;6.080;2023-04-24T09:11:58;0.60;;;0.60;;
24143;SDS011;12307;50.828;6.080;2023-04-24T09:14:23;0.50;;;0.50;;
24143;SDS011;12307;50.828;6.080;2023-04-24T09:16:50;0.73;;;0.52;;
24143;SDS011;12307;50.828;6.080;2023-04-24T09:19:15;0.60;;;0.60;;
24143;SDS011;12307;50.828;6.080;2023-04-24T09:21:45;0.52;;;0.52;;
24143;SDS011;12307;50.828;6.080;2023-04-24T09:24:14;0.60;;;0.60;;
24143;SDS011;12307;50.828;6.080;2023-04-24T09:26:43;0.63;;;0.63;;
24143;SDS011;12307;50.828;6.080;2023-04-24T09:29:13;0.65;;;0.65;;
24143;SDS011;12307;50.828;6.080;2023-04-24T09:31:40;0.40;;;0.40;;
24143;SDS011;12307;50.828;6.080;2023-04-24T09:34:06;0.60;;;0.60;;
24143;SDS011;12307;50.828;6.080;2023-04-24T09:36:32;0.65;;;0.63;;
24143;SDS011;12307;50.828;6.080;2023-04-24T09:39:00;0.63;;;0.60;;
24143;SDS011;12307;50.828;6.080;2023-04-24T09:41:27;0.85;;;0.60;;
24143;SDS011;12307;50.828;6.080;2023-04-24T09:43:54;0.60;;;0.60;;
24143;SDS011;12307;50.828;6.080;2023-04-24T09:46:21;0.60;;;0.60;;
24143;SDS011;12307;50.828;6.080;2023-04-24T09:48:54;0.60;;;0.60;;
24143;SDS011;12307;50.828;6.080;2023-04-24T09:51:20;0.52;;;0.52;;
24143;SDS011;12307;50.828;6.080;2023-04-24T09:53:58;0.55;;;0.55;;
24143;SDS011;12307;50.828;6.080;2023-04-24T09:56:25;0.88;;;0.57;;
24143;SDS011;12307;50.828;6.080;2023-04-24T09:58:51;0.68;;;0.60;;
24143;SDS011;12307;50.828;6.080;2023-04-24T10:01:23;1.00;;;0.55;;
24143;SDS011;12307;50.828;6.080;2023-04-24T10:03:55;0.68;;;0.50;;
24143;SDS011;12307;50.828;6.080;2023-04-24T10:06:21;0.45;;;0.45;;
24143;SDS011;12307;50.828;6.080;2023-04-24T10:08:47;0.50;;;0.50;;
24143;SDS011;12307;50.828;6.080;2023-04-24T10:11:16;0.60;;;0.57;;
24143;SDS011;12307;50.828;6.080;2023-04-24T10:13:42;0.40;;;0.40;;
24143;SDS011;12307;50.828;6.080;2023-04-24T10:16:08;0.50;;;0.50;;
24143;SDS011;12307;50.828;6.080;2023-04-24T10:18:35;0.70;;;0.70;;
24143;SDS011;12307;50.828;6.080;2023-04-24T10:21:01;0.55;;;0.55;;
24143;SDS011;12307;50.828;6.080;2023-04-24T10:23:27;0.70;;;0.70;;
24143;SDS011;12307;50.828;6.080;2023-04-24T10:25:54;0.68;;;0.60;;
24143;SDS011;12307;50.828;6.080;2023-04-24T10:28:21;0.65;;;0.60;;
24143;SDS011;12307;50.828;6.080;2023-04-24T10:30:49;0.73;;;0.70;;
24143;SDS011;12307;50.828;6.080;2023-04-24T10:33:16;0.70;;;0.50;;
24143;SDS011;12307;50.828;6.080;2023-04-24T10:35:44;0.63;;;0.60;;
24143;SDS011;12307;50.828;6.080;2023-04-24T10:38:14;0.98;;;0.73;;
24143;SDS011;12307;50.828;6.080;2023-04-24T10:40:43;0.88;;;0.88;;
24143;SDS011;12307;50.828;6.080;2023-04-24T10:43:09;0.70;;;0.70;;
24143;SDS011;12307;50.828;6.080;2023-04-24T10:45:37;0.65;;;0.60;;
24143;SDS011;12307;50.828;6.080;2023-04-24T10:48:04;0.60;;;0.60;;
24143;SDS011;12307;50.828;6.080;2023-04-24T10:50:43;1.33;;;0.80;;
24143;SDS011;12307;50.828;6.080;2023-04-24T10:53:12;0.70;;;0.60;;
24143;SDS011;12307;50.828;6.080;2023-04-24T10:55:40;1.00;;;0.90;;
24143;SDS011;12307;50.828;6.080;2023-04-24T10:58:08;0.70;;;0.70;;
24143;SDS011;12307;50.828;6.080;2023-04-24T11:00:36;0.77;;;0.70;;
24143;SDS011;12307;50.828;6.080;2023-04-24T11:03:04;2.10;;;0.98;;
24143;SDS011;12307;50.828;6.080;2023-04-24T11:05:49;1.20;;;0.88;;
24143;SDS011;12307;50.828;6.080;2023-04-24T11:08:21;0.95;;;0.70;;
24143;SDS011;12307;50.828;6.080;2023-04-24T11:10:56;0.80;;;0.80;;
24143;SDS011;12307;50.828;6.080;2023-04-24T11:13:29;0.90;;;0.80;;
24143;SDS011;12307;50.828;6.080;2023-04-24T11:16:32;0.70;;;0.70;;
24143;SDS011;12307;50.828;6.080;2023-04-24T11:19:02;0.82;;;0.70;;
24143;SDS011;12307;50.828;6.080;2023-04-24T11:21:40;0.73;;;0.73;;
24143;SDS011;12307;50.828;6.080;2023-04-24T11:24:26;1.00;;;0.77;;
24143;SDS011;12307;50.828;6.080;2023-04-24T11:26:56;0.73;;;0.73;;
24143;SDS011;12307;50.828;6.080;2023-04-24T11:29:39;0.98;;;0.80;;
24143;SDS011;12307;50.828;6.080;2023-04-24T11:34:50;0.70;;;0.70;;
24143;SDS011;12307;50.828;6.080;2023-04-24T11:37:17;1.00;;;0.73;;
24143;SDS011;12307;50.828;6.080;2023-04-24T11:39:43;0.82;;;0.70;;
24143;SDS011;12307;50.828;6.080;2023-04-24T11:42:09;0.98;;;0.80;;
24143;SDS011;12307;50.828;6.080;2023-04-24T11:44:35;1.40;;;0.90;;
24143;SDS011;12307;50.828;6.080;2023-04-24T11:47:05;0.80;;;0.80;;
24143;SDS011;12307;50.828;6.080;2023-04-24T11:49:36;0.95;;;0.70;;
24143;SDS011;12307;50.828;6.080;2023-04-24T11:52:02;1.05;;;0.90;;
24143;SDS011;12307;50.828;6.080;2023-04-24T11:54:28;1.20;;;1.05;;
24143;SDS011;12307;50.828;6.080;2023-04-24T11:56:53;1.15;;;1.00;;
24143;SDS011;12307;50.828;6.080;2023-04-24T11:59:21;1.10;;;1.00;;
24143;SDS011;12307;50.828;6.080;2023-04-24T12:01:46;0.80;;;0.80;;
24143;SDS011;12307;50.828;6.080;2023-04-24T12:04:15;0.85;;;0.77;;
24143;SDS011;12307;50.828;6.080;2023-04-24T12:09:25;0.70;;;0.70;;
24143;SDS011;12307;50.828;6.080;2023-04-24T12:11:54;0.98;;;0.90;;
24143;SDS011;12307;50.828;6.080;2023-04-24T12:14:22;0.95;;;0.80;;
24143;SDS011;12307;50.828;6.080;2023-04-24T12:16:48;0.70;;;0.70;;
24143;SDS011;12307;50.828;6.080;2023-04-24T12:19:18;1.10;;;0.90;;
24143;SDS011;12307;50.828;6.080;2023-04-24T12:21:58;0.80;;;0.80;;
24143;SDS011;12307;50.828;6.080;2023-04-24T12:24:24;1.05;;;0.90;;
24143;SDS011;12307;50.828;6.080;2023-04-24T12:26:50;0.80;;;0.70;;
24143;SDS011;12307;50.828;6.080;2023-04-24T12:29:19;0.82;;;0.82;;
24143;SDS011;12307;50.828;6.080;2023-04-24T12:31:45;0.95;;;0.85;;
24143;SDS011;12307;50.828;6.080;2023-04-24T12:34:18;0.68;;;0.68;;
24143;SDS011;12307;50.828;6.080;2023-04-24T12:36:45;1.10;;;0.93;;
24143;SDS011;12307;50.828;6.080;2023-04-24T12:39:14;0.90;;;0.90;;
24143;SDS011;12307;50.828;6.080;2023-04-24T12:41:48;0.80;;;0.80;;
24143;SDS011;12307;50.828;6.080;2023-04-24T12:44:16;0.90;;;0.80;;
24143;SDS011;12307;50.828;6.080;2023-04-24T12:46:43;1.00;;;0.88;;
24143;SDS011;12307;50.828;6.080;2023-04-24T12:49:09;1.67;;;0.80;;
24143;SDS011;12307;50.828;6.080;2023-04-24T12:51:36;0.73;;;0.73;;
24143;SDS011;12307;50.828;6.080;2023-04-24T12:54:02;1.05;;;0.80;;
24143;SDS011;12307;50.828;6.080;2023-04-24T12:56:28;1.17;;;0.80;;
24143;SDS011;12307;50.828;6.080;2023-04-24T12:58:53;0.82;;;0.82;;
24143;SDS011;12307;50.828;6.080;2023-04-24T13:01:19;0.98;;;0.80;;
24143;SDS011;12307;50.828;6.080;2023-04-24T13:03:45;1.88;;;0.80;;
24143;SDS011;12307;50.828;6.080;2023-04-24T13:06:11;0.70;;;0.70;;
24143;SDS011;12307;50.828;6.080;2023-04-24T13:08:38;1.00;;;0.80;;
24143;SDS011;12307;50.828;6.080;2023-04-24T13:11:03;1.00;;;0.90;;
24143;SDS011;12307;50.828;6.080;2023-04-24T13:13:29;0.80;;;0.75;;
24143;SDS011;12307;50.828;6.080;2023-04-24T13:15:55;0.80;;;0.80;;
24143;SDS011;12307;50.828;6.080;2023-04-24T13:18:20;0.90;;;0.73;;
24143;SDS011;12307;50.828;6.080;2023-04-24T13:20:46;0.77;;;0.77;;
24143;SDS011;12307;50.828;6.080;2023-04-24T13:23:12;0.82;;;0.82;;
24143;SDS011;12307;50.828;6.080;2023-04-24T13:25:39;1.55;;;0.95;;
24143;SDS011;12307;50.828;6.080;2023-04-24T13:28:05;0.98;;;0.88;;
24143;SDS011;12307;50.828;6.080;2023-04-24T13:30:31;0.90;;;0.90;;
24143;SDS011;12307;50.828;6.080;2023-04-24T13:32:57;1.45;;;0.90;;
24143;SDS011;12307;50.828;6.080;2023-04-24T13:35:23;1.10;;;0.88;;
24143;SDS011;12307;50.828;6.080;2023-04-24T13:37:48;0.70;;;0.70;;
24143;SDS011;12307;50.828;6.080;2023-04-24T13:40:14;1.02;;;0.93;;
24143;SDS011;12307;50.828;6.080;2023-04-24T13:42:41;0.90;;;0.80;;
24143;SDS011;12307;50.828;6.080;2023-04-24T13:45:08;0.85;;;0.70;;
24143;SDS011;12307;50.828;6.080;2023-04-24T13:47:35;0.80;;;0.80;;
24143;SDS011;12307;50.828;6.080;2023-04-24T13:50:01;0.95;;;0.82;;
24143;SDS011;12307;50.828;6.080;2023-04-24T13:52:27;1.15;;;0.80;;
24143;SDS011;12307;50.828;6.080;2023-04-24T13:54:52;1.20;;;1.00;;
24143;SDS011;12307;50.828;6.080;2023-04-24T13:57:18;1.08;;;0.90;;
24143;SDS011;12307;50.828;6.080;2023-04-24T13:59:45;1.10;;;0.90;;
24143;SDS011;12307;50.828;6.080;2023-04-24T14:02:11;0.73;;;0.63;;
24143;SDS011;12307;50.828;6.080;2023-04-24T14:04:36;0.63;;;0.63;;
24143;SDS011;12307;50.828;6.080;2023-04-24T14:07:02;0.98;;;0.90;;
24143;SDS011;12307;50.828;6.080;2023-04-24T14:09:28;0.88;;;0.88;;
24143;SDS011;12307;50.828;6.080;2023-04-24T14:11:54;0.70;;;0.70;;
24143;SDS011;12307;50.828;6.080;2023-04-24T14:14:19;0.88;;;0.80;;
24143;SDS011;12307;50.828;6.080;2023-04-24T14:16:46;0.70;;;0.70;;
24143;SDS011;12307;50.828;6.080;2023-04-24T14:19:12;0.82;;;0.82;;
24143;SDS011;12307;50.828;6.080;2023-04-24T14:21:38;0.95;;;0.85;;
24143;SDS011;12307;50.828;6.080;2023-04-24T14:24:03;0.93;;;0.93;;
24143;SDS011;12307;50.828;6.080;2023-04-24T14:26:29;1.58;;;1.05;;
24143;SDS011;12307;50.828;6.080;2023-04-24T14:28:55;1.00;;;0.80;;
24143;SDS011;12307;50.828;6.080;2023-04-24T14:31:23;1.17;;;0.98;;
24143;SDS011;12307;50.828;6.080;2023-04-24T14:33:50;0.80;;;0.80;;
24143;SDS011;12307;50.828;6.080;2023-04-24T14:36:16;1.00;;;0.80;;
24143;SDS011;12307;50.828;6.080;2023-04-24T14:38:42;0.98;;;0.93;;
24143;SDS011;12307;50.828;6.080;2023-04-24T14:41:08;1.02;;;0.80;;
24143;SDS011;12307;50.828;6.080;2023-04-24T14:43:35;0.77;;;0.77;;
24143;SDS011;12307;50.828;6.080;2023-04-24T14:46:00;1.55;;;0.90;;
24143;SDS011;12307;50.828;6.080;2023-04-24T14:48:27;0.73;;;0.73;;
24143;SDS011;12307;50.828;6.080;2023-04-24T14:50:54;0.80;;;0.80;;